createdAt,value
2018-11-25T00:00:10.654Z,20.80
2018-11-25T00:02:39.024Z,21.80
2018-11-25T00:05:08.347Z,20.20
2018-11-25T00:07:36.699Z,20.80
2018-11-25T00:10:06.041Z,21.53
2018-11-25T00:12:34.635Z,19.57
2018-11-25T00:15:03.066Z,19.60
2018-11-25T00:17:31.417Z,21.50
2018-11-25T00:19:59.963Z,19.50
2018-11-25T00:22:28.409Z,18.93
2018-11-25T00:24:57.007Z,19.73
2018-11-25T00:27:25.358Z,20.73
2018-11-25T00:29:53.755Z,20.43
2018-11-25T00:32:22.166Z,16.30
2018-11-25T00:34:50.518Z,19.60
2018-11-25T00:37:18.898Z,20.00
2018-11-25T00:39:47.284Z,21.90
2018-11-25T00:42:15.662Z,20.27
2018-11-25T00:44:44.046Z,17.03
2018-11-25T00:47:12.419Z,18.47
2018-11-25T00:49:40.806Z,18.50
2018-11-25T00:52:09.181Z,20.10
2018-11-25T00:54:37.542Z,20.23
2018-11-25T00:57:06.412Z,20.37
2018-11-25T00:59:34.834Z,21.20
2018-11-25T01:02:03.220Z,21.07
2018-11-25T01:04:31.562Z,19.53
2018-11-25T01:06:59.948Z,20.50
2018-11-25T01:09:28.925Z,21.20
2018-11-25T01:11:57.311Z,20.03
2018-11-25T01:14:25.681Z,20.33
2018-11-25T01:16:54.080Z,20.23
2018-11-25T01:19:22.462Z,20.97
2018-11-25T01:21:50.878Z,20.57
2018-11-25T01:24:19.272Z,21.60
2018-11-25T01:26:48.278Z,20.80
2018-11-25T01:29:16.629Z,20.77
2018-11-25T01:31:45.009Z,19.17
2018-11-25T01:34:13.386Z,19.47
2018-11-25T01:36:41.745Z,21.73
2018-11-25T01:39:10.151Z,22.03
2018-11-25T01:41:38.544Z,21.70
2018-11-25T01:44:06.994Z,21.53
2018-11-25T01:46:35.391Z,21.67
2018-11-25T01:49:03.770Z,21.40
2018-11-25T01:51:32.150Z,21.47
2018-11-25T01:54:00.499Z,22.40
2018-11-25T01:56:28.976Z,25.17
2018-11-25T01:58:57.348Z,23.80
2018-11-25T02:01:26.554Z,22.77
2018-11-25T02:03:54.946Z,20.27
2018-11-25T02:06:23.275Z,22.87
2018-11-25T02:08:51.679Z,21.57
2018-11-25T02:11:20.063Z,25.93
2018-11-25T02:13:48.466Z,22.67
2018-11-25T02:16:16.846Z,21.33
2018-11-25T02:18:45.205Z,19.90
2018-11-25T02:21:13.631Z,20.17
2018-11-25T02:23:42.086Z,22.00
2018-11-25T02:26:10.524Z,22.67
2018-11-25T02:28:38.916Z,23.83
2018-11-25T02:31:07.831Z,24.83
2018-11-25T02:33:36.282Z,21.53
2018-11-25T02:36:04.697Z,22.97
2018-11-25T02:38:33.111Z,22.87
2018-11-25T02:41:01.533Z,22.23
2018-11-25T02:43:29.920Z,22.47
2018-11-25T02:45:58.338Z,19.57
2018-11-25T02:48:26.723Z,21.93
2018-11-25T02:50:55.131Z,19.30
2018-11-25T02:53:23.515Z,19.50
2018-11-25T02:55:51.893Z,21.03
2018-11-25T02:58:20.386Z,21.30
2018-11-25T03:00:48.836Z,19.73
2018-11-25T03:03:17.206Z,20.90
2018-11-25T03:05:45.643Z,17.90
2018-11-25T03:08:14.040Z,18.07
2018-11-25T03:10:42.529Z,19.23
2018-11-25T03:13:11.578Z,19.47
2018-11-25T03:15:40.056Z,17.77
2018-11-25T03:18:08.390Z,20.23
2018-11-25T03:20:36.771Z,21.47
2018-11-25T03:23:05.358Z,19.13
2018-11-25T03:25:33.737Z,20.63
2018-11-25T03:28:02.198Z,21.33
2018-11-25T03:30:30.544Z,19.87
2018-11-25T03:32:58.970Z,20.37
2018-11-25T03:35:27.316Z,20.07
2018-11-25T03:37:55.723Z,16.80
2018-11-25T03:40:24.121Z,20.40
2018-11-25T03:42:52.503Z,18.57
2018-11-25T03:45:21.730Z,20.27
2018-11-25T03:47:50.121Z,18.27
2018-11-25T03:50:18.551Z,18.17
2018-11-25T03:52:46.927Z,19.57
2018-11-25T03:55:16.831Z,18.43
2018-11-25T03:57:45.275Z,16.63
2018-11-25T04:00:15.651Z,18.13
2018-11-25T04:02:44.087Z,15.97
2018-11-25T04:05:14.463Z,16.87
2018-11-25T04:07:42.917Z,15.47
2018-11-25T04:10:17.179Z,16.37
2018-11-25T04:12:45.573Z,14.93
2018-11-25T04:15:16.686Z,12.90
2018-11-25T04:17:45.182Z,15.37
2018-11-25T04:20:19.250Z,14.83
2018-11-25T04:22:47.813Z,15.23
2018-11-25T04:25:16.322Z,15.30
2018-11-25T04:27:44.666Z,14.60
2018-11-25T04:30:14.808Z,15.20
2018-11-25T04:32:43.696Z,15.43
2018-11-25T04:35:12.535Z,15.33
2018-11-25T04:37:40.952Z,15.77
2018-11-25T04:40:10.343Z,15.03
2018-11-25T04:42:38.776Z,16.07
2018-11-25T04:45:09.910Z,16.87
2018-11-25T04:47:38.338Z,17.93
2018-11-25T04:50:11.264Z,12.53
2018-11-25T04:52:41.032Z,14.50
2018-11-25T04:55:08.470Z,15.30
2018-11-25T04:57:36.839Z,16.07
2018-11-25T05:00:08.578Z,17.90
2018-11-25T05:02:36.954Z,13.30
2018-11-25T05:05:06.605Z,14.03
2018-11-25T05:07:35.090Z,13.60
2018-11-25T05:10:03.875Z,13.27
2018-11-25T05:12:32.283Z,15.63
2018-11-25T05:15:00.766Z,15.60
2018-11-25T05:17:30.210Z,13.63
2018-11-25T05:19:57.466Z,16.40
2018-11-25T05:22:25.874Z,14.43
2018-11-25T05:24:54.227Z,14.50
2018-11-25T05:27:22.609Z,13.43
2018-11-25T05:29:50.999Z,12.20
2018-11-25T05:32:19.367Z,11.20
2018-11-25T05:34:47.770Z,14.07
2018-11-25T05:37:16.212Z,13.70
2018-11-25T05:39:44.581Z,15.77
2018-11-25T05:42:13.011Z,16.23
2018-11-25T05:44:41.362Z,15.17
2018-11-25T05:47:09.739Z,14.97
2018-11-25T05:49:38.283Z,13.47
2018-11-25T05:52:06.715Z,14.47
2018-11-25T05:54:35.082Z,15.90
2018-11-25T05:57:04.271Z,16.27
2018-11-25T05:59:32.644Z,14.07
2018-11-25T06:02:01.113Z,15.63
2018-11-25T06:04:29.466Z,11.23
2018-11-25T06:06:57.843Z,14.97
2018-11-25T06:09:26.322Z,14.37
2018-11-25T06:11:54.716Z,13.97
2018-11-25T06:14:23.279Z,15.50
2018-11-25T06:16:51.642Z,14.87
2018-11-25T06:19:20.028Z,15.10
2018-11-25T06:21:48.430Z,15.37
2018-11-25T06:24:16.855Z,15.10
2018-11-25T06:26:45.211Z,14.53
2018-11-25T06:29:13.644Z,15.53
2018-11-25T06:31:42.014Z,15.17
2018-11-25T06:34:10.444Z,11.13
2018-11-25T06:36:38.879Z,14.80
2018-11-25T06:39:08.935Z,14.63
2018-11-25T06:41:37.316Z,14.73
2018-11-25T06:44:05.979Z,16.20
2018-11-25T06:46:34.425Z,16.33
2018-11-25T06:49:02.903Z,16.40
2018-11-25T06:51:31.328Z,16.20
2018-11-25T06:53:59.688Z,15.30
2018-11-25T06:56:28.083Z,15.97
2018-11-25T06:58:56.441Z,15.40
2018-11-25T07:01:24.814Z,16.43
2018-11-25T07:03:53.190Z,16.63
2018-11-25T07:06:22.219Z,16.27
2018-11-25T07:08:50.686Z,16.37
2018-11-25T07:11:19.160Z,17.20
2018-11-25T07:13:47.554Z,15.67
2018-11-25T07:16:15.918Z,17.50
2018-11-25T07:18:44.283Z,16.23
2018-11-25T07:21:13.412Z,14.93
2018-11-25T07:23:41.807Z,17.30
2018-11-25T07:26:10.203Z,15.23
2018-11-25T07:28:38.564Z,15.47
2018-11-25T07:31:07.062Z,15.63
2018-11-25T07:33:35.486Z,18.30
2018-11-25T07:36:03.908Z,13.53
2018-11-25T07:38:32.294Z,17.17
2018-11-25T07:41:00.656Z,17.87
2018-11-25T07:43:29.050Z,18.50
2018-11-25T07:45:57.455Z,17.87
2018-11-25T07:48:25.903Z,17.70
2018-11-25T07:50:54.282Z,18.17
2018-11-25T07:53:23.534Z,18.70
2018-11-25T07:55:51.879Z,19.10
2018-11-25T07:58:20.540Z,16.80
2018-11-25T08:00:49.114Z,18.50
2018-11-25T08:03:17.731Z,21.00
2018-11-25T08:05:46.116Z,20.80
2018-11-25T08:08:16.491Z,19.53
2018-11-25T08:10:45.145Z,20.03
2018-11-25T08:13:13.923Z,17.90
2018-11-25T08:15:42.417Z,22.23
2018-11-25T08:18:11.093Z,23.00
2018-11-25T08:20:39.250Z,20.60
2018-11-25T08:23:07.748Z,21.30
2018-11-25T08:25:36.973Z,22.07
2018-11-25T08:28:05.663Z,25.40
2018-11-25T08:30:34.120Z,20.80
2018-11-25T08:33:02.538Z,23.80
2018-11-25T08:35:30.943Z,23.83
2018-11-25T08:37:59.301Z,22.40
2018-11-25T08:40:27.738Z,23.63
2018-11-25T08:42:56.151Z,24.30
2018-11-25T08:45:24.503Z,21.50
2018-11-25T08:47:52.853Z,21.40
2018-11-25T08:50:21.279Z,17.20
2018-11-25T08:52:50.955Z,22.33
2018-11-25T08:55:21.992Z,23.20
2018-11-25T08:57:50.482Z,18.77
2018-11-25T09:00:19.735Z,24.70
2018-11-25T09:02:48.796Z,20.57
2018-11-25T09:05:17.243Z,22.67
2018-11-25T09:07:45.693Z,24.50
2018-11-25T09:10:15.151Z,20.70
2018-11-25T09:12:43.914Z,23.53
2018-11-25T09:15:14.643Z,23.00
2018-11-25T09:17:43.175Z,23.17
2018-11-25T09:20:12.841Z,13.67
2018-11-25T09:22:41.380Z,14.73
2018-11-25T09:25:13.148Z,20.87
2018-11-25T09:27:41.645Z,23.23
2018-11-25T09:30:13.366Z,21.77
2018-11-25T09:32:41.772Z,21.70
2018-11-25T09:35:10.178Z,21.70
2018-11-25T09:37:39.219Z,24.00
2018-11-25T09:40:13.157Z,19.30
2018-11-25T09:42:41.625Z,21.17
2018-11-25T09:45:13.928Z,21.43
2018-11-25T09:47:43.657Z,22.13
2018-11-25T09:50:13.955Z,24.17
2018-11-25T09:52:42.388Z,20.63
2018-11-25T09:55:12.700Z,18.90
2018-11-25T09:57:42.007Z,22.00
2018-11-25T10:00:21.022Z,19.53
2018-11-25T10:02:49.614Z,21.95
2018-11-25T10:05:18.132Z,21.30
2018-11-25T10:07:46.686Z,20.87
2018-11-25T10:10:17.027Z,21.70
2018-11-25T10:12:45.417Z,17.10
2018-11-25T10:15:14.969Z,20.67
2018-11-25T10:17:43.387Z,19.13
2018-11-25T10:20:14.787Z,22.27
2018-11-25T10:22:44.621Z,19.47
2018-11-25T10:25:13.843Z,22.27
2018-11-25T10:27:42.301Z,20.10
2018-11-25T10:30:14.807Z,20.40
2018-11-25T10:32:43.460Z,23.33
2018-11-25T10:35:11.932Z,21.93
2018-11-25T10:37:40.494Z,21.83
2018-11-25T10:40:11.211Z,20.17
2018-11-25T10:42:39.609Z,18.37
2018-11-25T10:45:12.804Z,19.07
2018-11-25T10:47:41.807Z,21.63
2018-11-25T10:50:15.607Z,25.50
2018-11-25T10:52:44.023Z,21.53
2018-11-25T10:55:13.558Z,23.60
2018-11-25T10:57:42.761Z,20.73
2018-11-25T11:00:24.428Z,24.50
2018-11-25T11:03:59.062Z,24.80
2018-11-25T11:06:33.315Z,22.63
2018-11-25T11:09:01.817Z,23.13
2018-11-25T11:11:30.220Z,23.73
2018-11-25T11:13:58.642Z,26.40
2018-11-25T11:16:27.051Z,24.70
2018-11-25T11:18:55.563Z,22.23
2018-11-25T11:21:24.094Z,20.37
2018-11-25T11:23:52.583Z,22.67
2018-11-25T11:26:22.978Z,21.80
2018-11-25T11:28:51.382Z,27.17
2018-11-25T11:31:19.758Z,22.13
2018-11-25T11:33:48.175Z,21.57
2018-11-25T11:36:16.735Z,20.37
2018-11-25T11:38:45.155Z,26.20
2018-11-25T11:41:13.646Z,21.50
2018-11-25T11:43:42.028Z,23.27
2018-11-25T11:46:10.389Z,24.53
2018-11-25T11:48:39.751Z,22.27
2018-11-25T11:51:08.275Z,24.30
2018-11-25T11:53:36.727Z,24.67
2018-11-25T11:56:05.306Z,22.50
2018-11-25T11:58:34.295Z,24.00
2018-11-25T12:01:02.732Z,21.10
2018-11-25T12:03:31.130Z,27.83
2018-11-25T12:05:59.624Z,25.77
2018-11-25T12:08:28.213Z,25.83
2018-11-25T12:10:56.615Z,24.27
2018-11-25T12:13:25.034Z,27.10
2018-11-25T12:15:54.038Z,28.73
2018-11-25T12:18:22.392Z,29.20
2018-11-25T12:20:50.817Z,25.00
2018-11-25T12:23:19.259Z,28.97
2018-11-25T12:25:47.623Z,29.00
2018-11-25T12:28:16.095Z,28.70
2018-11-25T12:30:44.527Z,23.53
2018-11-25T12:33:12.918Z,29.90
2018-11-25T12:35:41.544Z,24.87
2018-11-25T12:38:09.932Z,27.93
2018-11-25T12:40:38.335Z,25.77
2018-11-25T12:43:07.290Z,25.40
2018-11-25T12:45:35.703Z,25.60
2018-11-25T12:48:04.184Z,23.53
2018-11-25T12:50:32.635Z,26.00
2018-11-25T12:53:01.033Z,23.30
2018-11-25T12:55:29.496Z,25.80
2018-11-25T12:57:58.224Z,27.10
2018-11-25T13:00:30.162Z,19.40
2018-11-25T13:02:58.528Z,24.03
2018-11-25T13:05:26.944Z,22.47
2018-11-25T13:07:55.458Z,26.93
2018-11-25T13:10:23.862Z,25.63
2018-11-25T13:12:52.307Z,24.47
2018-11-25T13:15:20.737Z,25.20
2018-11-25T13:17:49.656Z,21.37
2018-11-25T13:20:18.118Z,25.63
2018-11-25T13:22:46.485Z,23.77
2018-11-25T13:25:16.210Z,24.97
2018-11-25T13:27:44.613Z,21.67
2018-11-25T13:30:28.200Z,19.20
2018-11-25T13:32:57.834Z,23.97
2018-11-25T13:35:27.836Z,24.07
2018-11-25T13:37:55.770Z,19.10
2018-11-25T13:40:24.304Z,24.73
2018-11-25T13:42:52.775Z,19.67
2018-11-25T13:45:21.235Z,19.23
2018-11-25T13:47:49.683Z,26.13
2018-11-25T13:50:18.318Z,20.70
2018-11-25T13:52:46.690Z,25.63
2018-11-25T13:55:16.845Z,23.43
2018-11-25T13:57:45.237Z,21.53
2018-11-25T14:00:20.099Z,24.63
2018-11-25T14:02:48.471Z,27.13
2018-11-25T14:05:17.153Z,26.03
2018-11-25T14:07:45.543Z,24.93
2018-11-25T14:10:22.095Z,23.53
2018-11-25T14:12:50.678Z,21.20
2018-11-25T14:15:19.078Z,25.77
2018-11-25T14:17:47.471Z,22.97
2018-11-25T14:20:15.832Z,22.27
2018-11-25T14:22:44.245Z,20.43
2018-11-25T14:25:14.447Z,27.20
2018-11-25T14:27:43.156Z,19.73
2018-11-25T14:30:15.261Z,24.23
2018-11-25T14:32:43.685Z,23.93
2018-11-25T14:35:13.619Z,22.60
2018-11-25T14:37:42.014Z,23.97
2018-11-25T14:40:11.834Z,23.73
2018-11-25T14:42:40.259Z,19.03
2018-11-25T14:45:11.943Z,25.03
2018-11-25T14:47:40.415Z,24.90
2018-11-25T14:50:10.663Z,26.10
2018-11-25T14:52:39.334Z,28.60
2018-11-25T14:55:10.124Z,26.40
2018-11-25T14:57:38.811Z,24.43
2018-11-25T15:00:13.261Z,23.00
2018-11-25T15:02:41.967Z,25.40
2018-11-25T15:05:14.038Z,28.30
2018-11-25T15:07:42.480Z,23.87
2018-11-25T15:10:10.863Z,28.47
2018-11-25T15:12:39.372Z,30.33
2018-11-25T15:15:10.390Z,27.20
2018-11-25T15:17:38.818Z,28.47
2018-11-25T15:20:09.622Z,32.57
2018-11-25T15:22:38.218Z,24.03
2018-11-25T15:25:09.349Z,29.73
2018-11-25T15:27:37.783Z,24.13
2018-11-25T15:30:08.943Z,27.00
2018-11-25T15:32:37.391Z,33.80
2018-11-25T15:35:08.067Z,28.43
2018-11-25T15:37:37.170Z,28.27
2018-11-25T15:40:09.364Z,28.10
2018-11-25T15:42:37.848Z,31.70
2018-11-25T15:45:07.847Z,31.93
2018-11-25T15:47:36.318Z,35.33
2018-11-25T15:50:07.999Z,29.47
2018-11-25T15:52:36.533Z,22.73
2018-11-25T15:55:07.702Z,27.93
2018-11-25T15:57:36.251Z,28.70
2018-11-25T16:00:06.990Z,31.80
2018-11-25T16:02:35.426Z,31.97
2018-11-25T16:05:03.846Z,33.40
2018-11-25T16:07:32.303Z,32.07
2018-11-25T16:10:00.967Z,34.37
2018-11-25T16:12:29.326Z,33.93
2018-11-25T16:14:58.222Z,33.80
2018-11-25T16:17:26.659Z,34.10
2018-11-25T16:19:55.391Z,34.18
2018-11-25T16:22:23.869Z,33.73
2018-11-25T16:24:52.249Z,31.90
2018-11-25T16:27:21.220Z,35.67
2018-11-25T16:29:49.612Z,33.23
2018-11-25T16:32:18.223Z,24.53
2018-11-25T16:34:46.643Z,22.00
2018-11-25T16:37:14.985Z,32.93
2018-11-25T16:39:43.607Z,31.57
2018-11-25T16:42:12.071Z,33.17
2018-11-25T16:44:40.719Z,25.37
2018-11-25T16:47:09.192Z,26.67
2018-11-25T16:49:37.680Z,28.43
2018-11-25T16:52:06.150Z,21.90
2018-11-25T16:54:34.632Z,26.07
2018-11-25T16:57:02.986Z,30.37
2018-11-25T16:59:31.565Z,26.30
2018-11-25T17:02:00.182Z,25.83
2018-11-25T17:04:28.630Z,24.17
2018-11-25T17:06:57.750Z,26.33
2018-11-25T17:09:26.159Z,28.03
2018-11-25T17:11:55.170Z,29.70
2018-11-25T17:14:33.458Z,27.77
2018-11-25T17:16:53.239Z,28.83
2018-11-25T17:19:21.744Z,29.50
2018-11-25T17:21:50.249Z,28.33
2018-11-25T17:24:18.689Z,31.20
2018-11-25T17:26:47.091Z,28.47
2018-11-25T17:29:15.451Z,32.17
2018-11-25T17:31:43.862Z,27.53
2018-11-25T17:34:12.281Z,27.00
2018-11-25T17:36:40.708Z,28.40
2018-11-25T17:39:09.232Z,31.27
2018-11-25T17:41:39.366Z,25.67
2018-11-25T17:44:07.739Z,27.43
2018-11-25T17:46:37.380Z,28.93
2018-11-25T17:49:05.998Z,25.87
2018-11-25T17:51:34.390Z,24.73
2018-11-25T17:54:02.728Z,26.73
2018-11-25T17:56:31.102Z,23.43
2018-11-25T17:59:02.473Z,26.23
2018-11-25T18:01:31.030Z,22.87
2018-11-25T18:03:59.468Z,23.23
2018-11-25T18:06:27.919Z,25.90
2018-11-25T18:08:56.335Z,31.30
2018-11-25T18:11:24.720Z,27.17
2018-11-25T18:13:53.515Z,27.13
2018-11-25T18:16:21.881Z,27.37
2018-11-25T18:18:52.064Z,28.83
2018-11-25T18:21:23.183Z,31.60
2018-11-25T18:23:51.628Z,23.03
2018-11-25T18:26:20.198Z,33.70
2018-11-25T18:28:48.583Z,33.90
2018-11-25T18:31:17.019Z,33.97
2018-11-25T18:33:45.402Z,38.40
2018-11-25T18:36:14.199Z,28.77
2018-11-25T18:38:42.640Z,37.80
2018-11-25T18:41:10.995Z,23.47
2018-11-25T18:43:39.381Z,24.13
2018-11-25T18:46:08.022Z,33.33
2018-11-25T18:48:38.431Z,33.87
2018-11-25T18:51:06.855Z,27.97
2018-11-25T18:53:35.262Z,30.93
2018-11-25T18:56:05.040Z,29.27
2018-11-25T18:58:33.509Z,36.13
2018-11-25T19:02:07.572Z,34.00
2018-11-25T19:04:35.992Z,27.13
2018-11-25T19:07:05.409Z,24.43
2018-11-25T19:09:35.933Z,32.87
2018-11-25T19:12:04.887Z,33.37
2018-11-25T19:14:33.414Z,32.43
2018-11-25T19:17:01.845Z,31.93
2018-11-25T19:19:30.442Z,32.43
2018-11-25T19:21:58.858Z,31.37
2018-11-25T19:24:27.296Z,33.27
2018-11-25T19:26:55.687Z,37.73
2018-11-25T19:29:24.090Z,32.47
2018-11-25T19:31:52.454Z,38.17
2018-11-25T19:34:20.903Z,27.77
2018-11-25T19:36:49.338Z,32.67
2018-11-25T19:39:17.728Z,37.07
2018-11-25T19:41:46.136Z,33.47
2018-11-25T19:44:14.552Z,31.23
2018-11-25T19:46:42.935Z,27.80
2018-11-25T19:49:11.340Z,36.90
2018-11-25T19:51:39.712Z,35.10
2018-11-25T19:54:09.281Z,28.17
2018-11-25T19:56:37.703Z,35.83
2018-11-25T19:59:06.584Z,32.17
2018-11-25T20:01:34.982Z,33.07
2018-11-25T20:04:03.558Z,30.47
2018-11-25T20:06:31.927Z,29.40
2018-11-25T20:09:00.331Z,32.07
2018-11-25T20:11:28.711Z,30.53
2018-11-25T20:13:57.127Z,34.20
2018-11-25T20:16:30.939Z,30.63
2018-11-25T20:18:59.397Z,30.47
2018-11-25T20:21:33.186Z,32.97
2018-11-25T20:24:01.692Z,27.60
2018-11-25T20:26:30.144Z,24.43
2018-11-25T20:28:58.582Z,32.10
2018-11-25T20:31:27.019Z,33.53
2018-11-25T20:33:57.934Z,24.13
2018-11-25T20:36:26.511Z,29.90
2018-11-25T20:39:00.297Z,30.40
2018-11-25T20:41:28.660Z,31.70
2018-11-25T20:43:57.115Z,32.10
2018-11-25T20:46:30.674Z,29.60
2018-11-25T20:48:59.081Z,33.33
2018-11-25T20:51:32.681Z,30.17
2018-11-25T20:54:01.420Z,26.43
2018-11-25T20:56:29.835Z,32.53
2018-11-25T20:58:58.211Z,31.10
2018-11-25T21:01:26.638Z,30.93
2018-11-25T21:03:55.013Z,29.43
2018-11-25T21:06:23.404Z,30.23
2018-11-25T21:08:51.867Z,32.23
2018-11-25T21:11:20.219Z,31.50
2018-11-25T21:13:48.583Z,34.13
2018-11-25T21:16:16.999Z,31.60
2018-11-25T21:18:45.392Z,33.47
2018-11-25T21:21:13.762Z,25.13
2018-11-25T21:23:42.249Z,24.97
2018-11-25T21:26:10.714Z,30.73
2018-11-25T21:28:39.085Z,30.73
2018-11-25T21:31:07.539Z,29.87
2018-11-25T21:33:35.899Z,25.83
2018-11-25T21:36:04.287Z,28.40
2018-11-25T21:38:32.668Z,25.07
2018-11-25T21:41:01.083Z,32.57
2018-11-25T21:43:29.485Z,29.07
2018-11-25T21:45:57.886Z,31.00
2018-11-25T21:48:26.259Z,31.80
2018-11-25T21:50:54.654Z,31.17
2018-11-25T21:53:23.027Z,30.83
2018-11-25T21:58:19.850Z,34.13
2018-11-25T22:00:48.287Z,27.43
2018-11-25T22:03:16.688Z,30.80
2018-11-25T22:05:45.236Z,24.00
2018-11-25T22:08:13.639Z,27.97
2018-11-25T22:10:42.030Z,33.20
2018-11-25T22:13:10.608Z,26.60
2018-11-25T22:15:39.014Z,33.37
2018-11-25T22:18:07.543Z,30.80
2018-11-25T22:20:35.978Z,31.87
2018-11-25T22:23:04.468Z,27.33
2018-11-25T22:25:32.842Z,30.17
2018-11-25T22:28:01.238Z,33.27
2018-11-25T22:30:29.602Z,31.93
2018-11-25T22:32:58.027Z,26.60
2018-11-25T22:35:26.512Z,23.57
2018-11-25T22:37:54.881Z,23.13
2018-11-25T22:40:23.375Z,34.00
2018-11-25T22:42:51.958Z,27.97
2018-11-25T22:45:21.634Z,32.67
2018-11-25T22:47:50.131Z,31.37
2018-11-25T22:50:19.365Z,29.50
2018-11-25T22:52:47.862Z,31.53
2018-11-25T22:55:23.785Z,30.50
2018-11-25T22:57:52.300Z,33.47
2018-11-25T23:00:30.688Z,27.97
2018-11-25T23:02:59.133Z,30.43
2018-11-25T23:05:38.798Z,35.37
2018-11-25T23:08:07.269Z,26.83
2018-11-25T23:10:35.685Z,27.27
2018-11-25T23:13:04.098Z,26.63
2018-11-25T23:15:32.498Z,29.17
2018-11-25T23:18:00.896Z,28.53
2018-11-25T23:20:29.275Z,28.97
2018-11-25T23:22:57.658Z,27.93
2018-11-25T23:25:26.051Z,25.60
2018-11-25T23:27:54.492Z,28.20
2018-11-25T23:30:22.860Z,28.00
2018-11-25T23:32:51.203Z,27.70
2018-11-25T23:35:21.042Z,29.87
2018-11-25T23:37:49.591Z,32.10
2018-11-25T23:40:17.987Z,32.00
2018-11-25T23:42:46.624Z,24.07
2018-11-25T23:45:15.694Z,28.60
2018-11-25T23:47:44.130Z,32.87
2018-11-25T23:50:13.423Z,29.40
2018-11-25T23:52:42.682Z,29.47
2018-11-25T23:55:12.315Z,25.43
2018-11-25T23:57:40.994Z,28.43
